createdAt,value
2022-11-09T00:02:26.128Z,1.00
2022-11-09T00:04:52.805Z,1.00
2022-11-09T00:07:19.521Z,1.00
2022-11-09T00:09:46.251Z,1.00
2022-11-09T00:12:13.138Z,1.00
2022-11-09T00:14:39.871Z,1.00
2022-11-09T00:17:06.504Z,1.00
2022-11-09T00:19:33.178Z,1.00
2022-11-09T00:21:59.976Z,1.00
2022-11-09T00:24:26.589Z,1.00
2022-11-09T00:26:53.224Z,1.00
2022-11-09T00:29:19.957Z,1.00
2022-11-09T00:31:49.652Z,1.00
2022-11-09T00:34:16.342Z,1.00
2022-11-09T00:36:42.988Z,1.00
2022-11-09T00:39:09.628Z,1.00
2022-11-09T00:41:36.253Z,1.00
2022-11-09T00:44:02.980Z,1.00
2022-11-09T00:46:29.971Z,1.00
2022-11-09T00:48:56.823Z,1.00
2022-11-09T00:51:23.580Z,1.00
2022-11-09T00:53:54.335Z,1.00
2022-11-09T00:56:21.805Z,1.00
2022-11-09T00:58:52.043Z,1.00
2022-11-09T01:01:19.000Z,1.00
2022-11-09T01:03:45.711Z,1.00
2022-11-09T01:06:16.872Z,1.00
2022-11-09T01:08:43.846Z,1.00
2022-11-09T01:11:10.515Z,1.00
2022-11-09T01:13:37.511Z,1.00
2022-11-09T01:16:07.690Z,1.00
2022-11-09T01:18:36.264Z,1.00
2022-11-09T01:21:04.101Z,1.00
2022-11-09T01:23:31.747Z,1.00
2022-11-09T01:25:59.460Z,1.00
2022-11-09T01:28:26.279Z,1.00
2022-11-09T01:30:52.928Z,1.00
2022-11-09T01:33:19.749Z,1.00
2022-11-09T01:35:46.616Z,1.00
2022-11-09T01:38:13.296Z,1.00
2022-11-09T01:40:40.112Z,1.00
2022-11-09T01:43:16.257Z,1.00
2022-11-09T01:45:45.201Z,1.00
2022-11-09T01:48:13.497Z,1.00
2022-11-09T01:50:44.395Z,1.00
2022-11-09T01:53:14.291Z,1.00
2022-11-09T01:55:41.653Z,1.00
2022-11-09T01:58:10.382Z,1.00
2022-11-09T02:00:38.924Z,1.00
2022-11-09T02:03:08.168Z,1.00
2022-11-09T02:05:36.533Z,1.00
2022-11-09T02:08:04.355Z,1.00
2022-11-09T02:10:34.048Z,1.00
2022-11-09T02:13:02.277Z,1.00
2022-11-09T02:15:39.159Z,1.00
2022-11-09T02:18:10.679Z,1.00
2022-11-09T02:20:45.758Z,1.00
2022-11-09T02:23:12.936Z,1.00
2022-11-09T02:25:39.714Z,1.00
2022-11-09T02:28:07.209Z,1.00
2022-11-09T02:30:35.417Z,1.00
2022-11-09T02:33:02.619Z,1.00
2022-11-09T02:35:29.283Z,1.00
2022-11-09T02:37:56.118Z,1.00
2022-11-09T02:40:27.055Z,1.00
2022-11-09T02:42:54.533Z,1.00
2022-11-09T02:45:21.327Z,1.00
2022-11-09T02:47:47.962Z,1.00
2022-11-09T02:50:14.637Z,1.00
2022-11-09T02:52:42.354Z,1.00
2022-11-09T02:55:09.895Z,1.00
2022-11-09T02:57:36.692Z,1.00
2022-11-09T03:00:04.806Z,1.00
2022-11-09T03:02:31.739Z,1.00
2022-11-09T03:04:58.394Z,1.00
2022-11-09T03:07:25.438Z,1.00
2022-11-09T03:09:53.858Z,1.00
2022-11-09T03:12:31.907Z,1.00
2022-11-09T03:15:06.661Z,1.00
2022-11-09T03:17:34.081Z,1.00
2022-11-09T03:20:01.007Z,1.00
2022-11-09T03:22:28.906Z,1.00
2022-11-09T03:24:56.195Z,1.00
2022-11-09T03:27:24.299Z,1.00
2022-11-09T03:29:50.939Z,1.00
2022-11-09T03:32:17.685Z,1.00
2022-11-09T03:34:45.413Z,1.00
2022-11-09T03:37:13.784Z,1.00
2022-11-09T03:39:40.470Z,1.00
2022-11-09T03:42:07.085Z,1.00
2022-11-09T03:44:33.878Z,1.00
2022-11-09T03:47:00.670Z,1.00
2022-11-09T03:49:27.341Z,1.00
2022-11-09T03:51:53.989Z,1.00
2022-11-09T03:54:20.662Z,1.00
2022-11-09T03:56:47.337Z,1.00
2022-11-09T03:59:13.969Z,1.00
2022-11-09T04:01:40.657Z,1.00
2022-11-09T04:04:07.358Z,1.00
2022-11-09T04:06:34.227Z,1.00
2022-11-09T04:09:00.875Z,1.00
2022-11-09T04:11:27.684Z,1.00
2022-11-09T04:13:54.509Z,1.00
2022-11-09T04:16:21.197Z,1.00
2022-11-09T04:18:48.040Z,1.00
2022-11-09T04:21:14.691Z,1.00
2022-11-09T04:23:41.287Z,1.00
2022-11-09T04:26:07.906Z,1.00
2022-11-09T04:28:34.571Z,1.00
2022-11-09T04:31:01.949Z,1.00
2022-11-09T04:33:28.713Z,1.00
2022-11-09T04:35:55.360Z,1.00
2022-11-09T04:38:22.027Z,1.00
2022-11-09T04:40:48.698Z,1.00
2022-11-09T04:43:16.325Z,1.00
2022-11-09T04:45:43.091Z,1.00
2022-11-09T04:48:10.279Z,1.00
2022-11-09T04:50:37.096Z,1.00
2022-11-09T04:53:08.171Z,1.00
2022-11-09T04:55:35.147Z,1.00
2022-11-09T04:58:02.078Z,1.00
2022-11-09T05:00:28.936Z,1.00
2022-11-09T05:02:55.752Z,1.00
2022-11-09T05:05:22.406Z,1.00
2022-11-09T05:07:49.066Z,1.00
2022-11-09T05:10:15.749Z,1.00
2022-11-09T05:12:45.895Z,1.00
2022-11-09T05:15:12.854Z,1.00
2022-11-09T05:17:39.605Z,1.00
2022-11-09T05:20:06.565Z,1.00
2022-11-09T05:22:51.597Z,1.00
2022-11-09T05:25:18.275Z,1.00
2022-11-09T05:27:44.911Z,1.00
2022-11-09T05:30:11.798Z,1.00
2022-11-09T05:32:39.059Z,1.00
2022-11-09T05:35:05.911Z,1.00
2022-11-09T05:37:32.532Z,1.00
2022-11-09T05:39:59.130Z,1.00
2022-11-09T05:42:25.759Z,1.00
2022-11-09T05:44:52.415Z,1.00
2022-11-09T05:47:20.136Z,1.00
2022-11-09T05:49:46.803Z,1.00
2022-11-09T05:52:13.589Z,1.00
2022-11-09T05:54:40.199Z,1.00
2022-11-09T05:57:06.827Z,1.00
2022-11-09T05:59:33.494Z,1.00
2022-11-09T06:02:00.141Z,1.00
2022-11-09T06:04:26.800Z,1.00
2022-11-09T06:06:53.462Z,1.00
2022-11-09T06:09:20.113Z,1.00
2022-11-09T06:11:46.735Z,1.00
2022-11-09T06:14:13.418Z,1.10
2022-11-09T06:16:40.071Z,2.00
2022-11-09T06:19:06.734Z,2.20
2022-11-09T06:21:33.424Z,4.20
2022-11-09T06:24:00.130Z,6.60
2022-11-09T06:26:26.773Z,5.70
2022-11-09T06:28:53.391Z,5.10
2022-11-09T06:31:20.616Z,5.80
2022-11-09T06:33:47.245Z,6.10
2022-11-09T06:36:14.015Z,5.70
2022-11-09T06:38:40.745Z,6.10
2022-11-09T06:41:07.422Z,6.60
2022-11-09T06:43:34.040Z,7.90
2022-11-09T06:46:02.845Z,9.30
2022-11-09T06:48:29.715Z,11.10
2022-11-09T06:50:59.655Z,10.10
2022-11-09T06:53:29.729Z,11.80
2022-11-09T06:56:09.403Z,11.90
2022-11-09T06:58:36.415Z,12.50
2022-11-09T07:01:10.276Z,12.30
2022-11-09T07:03:37.959Z,12.20
2022-11-09T07:06:05.939Z,11.60
2022-11-09T07:08:32.949Z,11.20
2022-11-09T07:11:11.211Z,11.00
2022-11-09T07:13:38.208Z,8.90
2022-11-09T07:16:05.256Z,8.10
2022-11-09T07:18:32.252Z,9.40
2022-11-09T07:20:58.888Z,6.50
2022-11-09T07:23:25.803Z,5.20
2022-11-09T07:25:52.584Z,5.80
2022-11-09T07:28:19.251Z,5.30
2022-11-09T07:30:46.023Z,5.60
2022-11-09T07:33:14.169Z,6.20
2022-11-09T07:35:41.151Z,7.00
2022-11-09T07:38:08.068Z,7.60
2022-11-09T07:40:34.859Z,8.80
2022-11-09T07:43:02.366Z,8.30
2022-11-09T07:45:29.403Z,10.60
2022-11-09T07:48:00.313Z,12.10
2022-11-09T07:50:27.338Z,11.20
2022-11-09T07:52:57.465Z,11.20
2022-11-09T07:55:24.689Z,9.60
2022-11-09T07:57:58.124Z,9.80
2022-11-09T08:00:25.201Z,5.60
2022-11-09T08:02:51.865Z,1.00
2022-11-09T08:05:18.944Z,1.00
2022-11-09T08:07:45.655Z,1.00
2022-11-09T08:10:12.615Z,1.00
2022-11-09T08:12:39.428Z,1.00
2022-11-09T08:15:06.822Z,1.00
2022-11-09T08:17:33.451Z,1.00
2022-11-09T08:20:00.223Z,1.00
2022-11-09T08:22:26.953Z,1.00
2022-11-09T08:24:53.589Z,1.00
2022-11-09T08:27:20.283Z,1.00
2022-11-09T08:29:46.917Z,1.00
2022-11-09T08:32:14.337Z,1.00
2022-11-09T08:34:41.020Z,1.00
2022-11-09T08:37:07.660Z,1.00
2022-11-09T08:39:34.295Z,1.00
2022-11-09T08:42:00.945Z,1.00
2022-11-09T08:44:27.635Z,1.00
2022-11-09T08:46:54.249Z,1.00
2022-11-09T08:49:20.889Z,1.00
2022-11-09T08:51:47.470Z,1.00
2022-11-09T08:54:15.065Z,1.00
2022-11-09T08:56:41.794Z,1.00
2022-11-09T08:59:08.402Z,1.00
2022-11-09T09:01:35.094Z,1.00
2022-11-09T09:04:01.793Z,1.00
2022-11-09T09:06:31.259Z,1.00
2022-11-09T09:08:58.222Z,1.00
2022-11-09T09:11:24.897Z,1.00
2022-11-09T09:13:51.512Z,1.00
2022-11-09T09:16:18.102Z,1.00
2022-11-09T09:18:47.114Z,1.00
2022-11-09T09:21:13.822Z,1.00
2022-11-09T09:23:40.438Z,1.00
2022-11-09T09:26:07.053Z,1.00
2022-11-09T09:28:33.687Z,1.00
2022-11-09T09:31:01.189Z,1.00
2022-11-09T09:33:27.956Z,1.00
2022-11-09T09:35:58.037Z,1.00
2022-11-09T09:38:25.353Z,1.00
2022-11-09T09:41:00.043Z,1.00
2022-11-09T09:43:55.974Z,1.00
2022-11-09T09:46:26.947Z,1.00
2022-11-09T09:48:56.359Z,1.00
2022-11-09T09:51:49.373Z,1.00
2022-11-09T09:54:26.513Z,1.00
2022-11-09T09:56:54.323Z,1.00
2022-11-09T09:59:27.060Z,1.00
2022-11-09T10:01:57.310Z,1.00
2022-11-09T10:04:37.818Z,1.00
2022-11-09T10:07:04.752Z,1.00
2022-11-09T10:09:49.732Z,1.00
2022-11-09T10:12:19.226Z,1.00
2022-11-09T10:15:06.607Z,1.00
2022-11-09T10:17:36.306Z,1.00
2022-11-09T10:20:15.731Z,1.00
2022-11-09T10:22:51.881Z,1.00
2022-11-09T10:25:43.511Z,1.00
2022-11-09T10:28:13.528Z,1.00
2022-11-09T10:30:40.586Z,1.00
2022-11-09T10:33:10.354Z,1.00
2022-11-09T10:35:39.628Z,1.00
2022-11-09T10:38:13.221Z,1.00
2022-11-09T10:40:52.050Z,1.00
2022-11-09T10:43:37.194Z,1.00
2022-11-09T10:46:22.555Z,1.00
2022-11-09T10:49:18.838Z,1.00
2022-11-09T10:52:05.198Z,1.00
2022-11-09T10:54:50.270Z,1.00
2022-11-09T10:57:35.979Z,1.00
2022-11-09T11:00:21.957Z,1.00
2022-11-09T11:03:15.416Z,1.00
2022-11-09T11:06:02.311Z,1.00
2022-11-09T11:08:48.614Z,1.00
2022-11-09T11:11:36.759Z,1.00
2022-11-09T11:14:30.573Z,1.00
2022-11-09T11:17:20.968Z,1.00
2022-11-09T11:20:25.290Z,1.00
2022-11-09T11:23:15.114Z,1.00
2022-11-09T11:26:11.239Z,1.00
2022-11-09T11:28:59.732Z,1.00
2022-11-09T11:31:45.274Z,1.00
2022-11-09T11:34:59.265Z,1.00
2022-11-09T11:37:46.456Z,1.00
2022-11-09T11:40:50.242Z,1.00
2022-11-09T11:43:41.558Z,1.00
2022-11-09T11:46:50.361Z,1.00
2022-11-09T11:49:54.724Z,1.00
2022-11-09T11:53:15.413Z,1.00
2022-11-09T11:56:18.465Z,1.00
2022-11-09T11:59:03.495Z,1.00
2022-11-09T12:02:07.446Z,1.00
2022-11-09T12:05:04.595Z,1.00
2022-11-09T12:07:58.614Z,1.00
2022-11-09T12:10:52.910Z,1.00
2022-11-09T12:13:59.510Z,1.00
2022-11-09T12:16:48.976Z,1.00
2022-11-09T12:19:43.407Z,1.00
2022-11-09T12:22:48.129Z,1.00
2022-11-09T12:25:43.019Z,1.00
2022-11-09T12:28:31.471Z,1.00
2022-11-09T12:31:19.776Z,1.00
2022-11-09T12:34:16.372Z,1.00
2022-11-09T12:37:03.244Z,1.00
2022-11-09T12:39:55.013Z,1.00
2022-11-09T12:45:53.640Z,1.00
2022-11-09T12:48:39.399Z,1.00
2022-11-09T12:51:24.910Z,1.00
2022-11-09T12:54:11.671Z,1.00
2022-11-09T12:57:02.520Z,1.00
2022-11-09T12:59:50.061Z,1.00
2022-11-09T13:02:37.469Z,1.00
2022-11-09T13:05:38.686Z,1.00
2022-11-09T13:08:26.279Z,1.00
2022-11-09T13:11:11.653Z,1.00
2022-11-09T13:14:15.886Z,1.00
2022-11-09T13:17:02.233Z,1.00
2022-11-09T13:19:48.479Z,1.00
2022-11-09T13:22:33.791Z,1.00
2022-11-09T13:25:44.188Z,1.00
2022-11-09T13:28:32.703Z,1.00
2022-11-09T13:31:38.536Z,1.00
2022-11-09T13:34:43.553Z,1.00
2022-11-09T13:37:40.836Z,1.00
2022-11-09T13:40:32.182Z,1.00
2022-11-09T13:43:19.378Z,1.00
2022-11-09T13:46:21.954Z,1.00
2022-11-09T13:49:26.206Z,1.00
2022-11-09T13:52:30.673Z,1.00
2022-11-09T13:55:25.868Z,1.00
2022-11-09T13:58:18.702Z,1.00
2022-11-09T14:01:04.342Z,1.00
2022-11-09T14:03:50.468Z,1.00
2022-11-09T14:06:35.711Z,1.00
2022-11-09T14:09:21.462Z,1.00
2022-11-09T14:12:12.640Z,1.00
2022-11-09T14:15:03.815Z,1.00
2022-11-09T14:17:55.557Z,1.00
2022-11-09T14:20:41.667Z,1.00
2022-11-09T14:23:30.542Z,1.00
2022-11-09T14:26:17.361Z,1.00
2022-11-09T14:29:11.367Z,1.00
2022-11-09T14:31:56.559Z,1.00
2022-11-09T14:34:41.649Z,1.00
2022-11-09T14:37:27.458Z,1.00
2022-11-09T14:40:17.087Z,1.00
2022-11-09T14:43:05.335Z,1.00
2022-11-09T14:45:51.961Z,1.00
2022-11-09T14:48:39.758Z,1.00
2022-11-09T14:51:32.123Z,1.00
2022-11-09T14:54:19.030Z,1.00
2022-11-09T14:57:04.429Z,1.00
2022-11-09T14:59:50.837Z,1.00
2022-11-09T15:02:37.461Z,1.00
2022-11-09T15:05:28.840Z,1.00
2022-11-09T15:08:15.940Z,1.00
2022-11-09T15:11:01.278Z,1.00
2022-11-09T15:13:46.588Z,1.00
2022-11-09T15:16:31.793Z,1.00
2022-11-09T15:19:24.548Z,1.00
2022-11-09T15:22:32.631Z,1.00
2022-11-09T15:25:22.974Z,1.00
2022-11-09T15:28:11.179Z,1.00
2022-11-09T15:30:56.831Z,1.00
2022-11-09T15:33:45.002Z,1.00
2022-11-09T15:36:35.544Z,1.00
2022-11-09T15:39:21.641Z,1.00
2022-11-09T15:42:09.866Z,1.00
2022-11-09T15:44:56.576Z,1.00
2022-11-09T15:47:48.644Z,1.00
2022-11-09T15:50:34.276Z,1.00
2022-11-09T15:53:19.647Z,1.00
2022-11-09T15:56:05.182Z,1.00
2022-11-09T15:58:52.449Z,1.00
2022-11-09T16:01:38.880Z,1.00
2022-11-09T16:04:24.469Z,1.00
2022-11-09T16:07:11.023Z,1.00
2022-11-09T16:09:56.473Z,1.00
2022-11-09T16:12:46.220Z,1.00
2022-11-09T16:15:31.941Z,1.00
2022-11-09T16:18:21.420Z,1.00
2022-11-09T16:21:12.163Z,1.00
2022-11-09T16:23:58.768Z,1.00
2022-11-09T16:26:45.419Z,1.00
2022-11-09T16:29:31.927Z,1.00
2022-11-09T16:32:17.334Z,1.00
2022-11-09T16:35:25.455Z,1.00
2022-11-09T16:38:08.079Z,1.00
2022-11-09T16:40:53.610Z,1.00
2022-11-09T16:43:39.037Z,1.00
2022-11-09T16:46:26.358Z,1.00
2022-11-09T16:49:12.017Z,1.00
2022-11-09T16:51:57.458Z,1.00
2022-11-09T16:54:42.770Z,1.00
2022-11-09T16:57:27.716Z,1.00
2022-11-09T17:00:13.383Z,1.00
2022-11-09T17:03:01.434Z,1.00
2022-11-09T17:05:46.571Z,1.00
2022-11-09T17:08:31.724Z,1.00
2022-11-09T17:11:17.524Z,1.00
2022-11-09T17:14:03.022Z,1.00
2022-11-09T17:16:49.185Z,1.00
2022-11-09T17:19:35.162Z,1.00
2022-11-09T17:22:20.617Z,1.00
2022-11-09T17:25:06.270Z,1.00
2022-11-09T17:27:51.417Z,1.00
2022-11-09T17:30:39.893Z,1.00
2022-11-09T17:33:25.039Z,1.00
2022-11-09T17:36:14.083Z,1.00
2022-11-09T17:39:01.413Z,1.00
2022-11-09T17:41:46.646Z,1.00
2022-11-09T17:44:33.980Z,1.00
2022-11-09T17:47:19.247Z,1.00
2022-11-09T17:50:04.609Z,1.00
2022-11-09T17:52:50.249Z,1.00
2022-11-09T17:55:36.913Z,1.00
2022-11-09T17:58:22.565Z,1.00
2022-11-09T18:01:09.391Z,1.00
2022-11-09T18:03:54.735Z,1.00
2022-11-09T18:06:39.880Z,1.00
2022-11-09T18:09:42.203Z,1.00
2022-11-09T18:12:27.798Z,1.00
2022-11-09T18:15:13.271Z,1.00
2022-11-09T18:17:58.862Z,1.00
2022-11-09T18:20:44.319Z,1.00
2022-11-09T18:23:29.520Z,1.00
2022-11-09T18:26:14.740Z,1.00
2022-11-09T18:29:00.207Z,1.00
2022-11-09T18:31:45.634Z,1.00
2022-11-09T18:34:30.770Z,1.00
2022-11-09T18:37:15.905Z,1.00
2022-11-09T18:40:01.004Z,1.00
2022-11-09T18:42:46.084Z,1.00
2022-11-09T18:45:31.296Z,1.00
2022-11-09T18:48:16.583Z,1.00
2022-11-09T18:51:01.949Z,1.00
2022-11-09T18:53:48.218Z,1.00
2022-11-09T18:56:33.778Z,1.00
2022-11-09T18:59:19.279Z,1.00
2022-11-09T19:02:04.441Z,1.00
2022-11-09T19:04:49.661Z,1.00
2022-11-09T19:07:34.839Z,1.00
2022-11-09T19:10:20.298Z,1.00
2022-11-09T19:13:06.249Z,1.00
2022-11-09T19:15:57.153Z,1.00
2022-11-09T19:18:43.601Z,1.00
2022-11-09T19:21:34.411Z,1.00
2022-11-09T19:24:20.875Z,1.00
2022-11-09T19:27:06.280Z,1.00
2022-11-09T19:29:51.523Z,1.00
2022-11-09T19:32:36.804Z,1.00
2022-11-09T19:35:26.417Z,1.00
2022-11-09T19:38:14.118Z,1.00
2022-11-09T19:40:59.143Z,1.00
2022-11-09T19:43:44.413Z,1.00
2022-11-09T19:46:33.703Z,1.00
2022-11-09T19:49:18.869Z,1.00
2022-11-09T19:52:04.209Z,1.00
2022-11-09T19:54:49.847Z,1.00
2022-11-09T19:57:34.987Z,1.00
2022-11-09T20:00:20.218Z,1.00
2022-11-09T20:03:05.356Z,1.00
2022-11-09T20:05:53.609Z,1.00
2022-11-09T20:08:38.842Z,1.00
2022-11-09T20:11:43.331Z,1.00
2022-11-09T20:14:28.691Z,1.00
2022-11-09T20:17:13.967Z,1.00
2022-11-09T20:19:59.038Z,1.00
2022-11-09T20:22:44.341Z,1.00
2022-11-09T20:25:29.549Z,1.00
2022-11-09T20:28:14.701Z,1.00
2022-11-09T20:30:59.743Z,1.00
2022-11-09T20:33:44.914Z,1.00
2022-11-09T20:36:30.099Z,1.00
2022-11-09T20:39:15.265Z,1.00
2022-11-09T20:42:00.531Z,1.00
2022-11-09T20:44:45.729Z,1.00
2022-11-09T20:48:02.241Z,1.00
2022-11-09T20:50:36.453Z,1.00
2022-11-09T20:53:21.798Z,1.00
2022-11-09T20:56:06.976Z,1.00
2022-11-09T20:58:52.324Z,1.00
2022-11-09T21:01:37.806Z,1.00
2022-11-09T21:04:23.485Z,1.00
2022-11-09T21:07:08.675Z,1.00
2022-11-09T21:09:53.706Z,1.00
2022-11-09T21:12:38.700Z,1.00
2022-11-09T21:15:23.927Z,1.00
2022-11-09T21:18:09.040Z,1.00
2022-11-09T21:20:54.163Z,1.00
2022-11-09T21:23:58.136Z,1.00
2022-11-09T21:27:02.179Z,1.00
2022-11-09T21:29:50.564Z,1.00
2022-11-09T21:32:36.016Z,1.00
2022-11-09T21:35:21.493Z,1.00
2022-11-09T21:38:06.698Z,1.00
2022-11-09T21:40:52.165Z,1.00
2022-11-09T21:43:37.436Z,1.00
2022-11-09T21:46:23.376Z,1.00
2022-11-09T21:49:09.884Z,1.00
2022-11-09T21:51:55.645Z,1.00
2022-11-09T21:54:41.291Z,1.00
2022-11-09T21:57:26.886Z,1.00
2022-11-09T22:00:12.459Z,1.00
2022-11-09T22:02:57.513Z,1.00
2022-11-09T22:05:42.605Z,1.00
2022-11-09T22:08:27.868Z,1.00
2022-11-09T22:11:14.486Z,1.00
2022-11-09T22:14:18.363Z,1.00
2022-11-09T22:17:04.970Z,1.00
2022-11-09T22:20:09.215Z,1.00
2022-11-09T22:22:54.511Z,1.00
2022-11-09T22:25:43.852Z,1.00
2022-11-09T22:28:32.085Z,1.00
2022-11-09T22:31:17.144Z,1.00
2022-11-09T22:34:02.558Z,1.00
2022-11-09T22:36:47.761Z,1.00
2022-11-09T22:39:32.983Z,1.30
2022-11-09T22:42:18.424Z,2.70
2022-11-09T22:45:03.466Z,1.70
2022-11-09T22:47:48.928Z,4.10
2022-11-09T22:50:34.556Z,4.70
2022-11-09T22:53:20.243Z,7.00
2022-11-09T22:56:05.892Z,7.10
2022-11-09T22:58:51.772Z,8.50
2022-11-09T23:01:37.279Z,9.20
2022-11-09T23:04:22.409Z,7.70
2022-11-09T23:07:07.639Z,8.50
2022-11-09T23:09:52.799Z,9.30
2022-11-09T23:12:37.979Z,9.30
2022-11-09T23:15:23.101Z,10.30
2022-11-09T23:18:27.500Z,10.70
2022-11-09T23:21:13.165Z,13.10
2022-11-09T23:24:00.050Z,12.70
2022-11-09T23:26:45.109Z,13.30
2022-11-09T23:29:30.384Z,12.90
2022-11-09T23:32:15.428Z,13.50
2022-11-09T23:35:00.549Z,14.10
2022-11-09T23:37:45.729Z,14.50
2022-11-09T23:40:31.630Z,15.40
2022-11-09T23:43:17.490Z,17.30
2022-11-09T23:46:03.801Z,18.90
2022-11-09T23:48:49.227Z,19.50
2022-11-09T23:51:34.389Z,20.70
2022-11-09T23:54:19.619Z,24.30
2022-11-09T23:57:04.856Z,23.50
2022-11-09T23:59:50.145Z,25.80
